Mountain City, Texas
Current Conditions -  °F | °C
As of 12:55 AM on Monday 24 Nov 2014 (Local Time) from KHYI Reporting Station
Clear Clear  
Wind Chill: 55°   Ceiling: Unl
Heat Index: 55°   Visibility: 10mi
Dew Point: 39°   Wind: 18mph
Humidity: 54%   Direction: 360°N
Pressure: 29.88"   Gusts: 23mph
Location:  30.0694°N, 97.8797°W
Report Text: KHYI 240655Z 36016G20KT 10SM CLR 13/04 A2988 RMK AO1
Loading
Personal Weather Stations






























Interactive Weather Map New forecast layout! Learn more

10-Day Weather Forecast

Advertisements
Track Severe Weather on mobile